sensor_id;sensor_type;location;lat;lon;timestamp;pressure;altitude;pressure_sealevel;temperature;humidity
19795;BME280;10057;59.402;17.866;2023-12-14T00:02:18;101291.84;;;-4.86;81.67
19795;BME280;10057;59.402;17.866;2023-12-14T00:04:45;101285.75;;;-4.88;81.61
19795;BME280;10057;59.402;17.866;2023-12-14T00:07:11;101286.59;;;-4.89;81.55
19795;BME280;10057;59.402;17.866;2023-12-14T00:09:41;101280.47;;;-4.91;81.95
19795;BME280;10057;59.402;17.866;2023-12-14T00:12:07;101285.59;;;-4.92;81.49
19795;BME280;10057;59.402;17.866;2023-12-14T00:14:34;101285.59;;;-4.92;81.93
19795;BME280;10057;59.402;17.866;2023-12-14T00:17:01;101279.53;;;-4.93;81.99
19795;BME280;10057;59.402;17.866;2023-12-14T00:19:27;101285.59;;;-4.92;82.13
19795;BME280;10057;59.402;17.866;2023-12-14T00:21:54;101287.41;;;-4.90;82.24
19795;BME280;10057;59.402;17.866;2023-12-14T00:24:21;101291.78;;;-4.89;82.05
19795;BME280;10057;59.402;17.866;2023-12-14T00:26:48;101284.78;;;-4.91;81.61
19795;BME280;10057;59.402;17.866;2023-12-14T00:29:14;101290.84;;;-4.91;81.65
19795;BME280;10057;59.402;17.866;2023-12-14T00:31:41;101291.66;;;-4.92;81.73
19795;BME280;10057;59.402;17.866;2023-12-14T00:34:08;101286.50;;;-4.92;82.16
19795;BME280;10057;59.402;17.866;2023-12-14T00:36:34;101293.44;;;-4.91;81.80
19795;BME280;10057;59.402;17.866;2023-12-14T00:39:01;101293.44;;;-4.91;81.71
19795;BME280;10057;59.402;17.866;2023-12-14T00:41:28;101291.78;;;-4.89;82.05
19795;BME280;10057;59.402;17.866;2023-12-14T00:43:54;101279.75;;;-4.87;82.31
19795;BME280;10057;59.402;17.866;2023-12-14T00:46:21;101293.63;;;-4.85;82.14
19795;BME280;10057;59.402;17.866;2023-12-14T00:48:47;101302.28;;;-4.84;82.22
19795;BME280;10057;59.402;17.866;2023-12-14T00:51:14;101289.22;;;-4.87;82.15
19795;BME280;10057;59.402;17.866;2023-12-14T00:53:41;101291.81;;;-4.87;81.95
19795;BME280;10057;59.402;17.866;2023-12-14T00:56:08;101296.13;;;-4.88;81.86
19795;BME280;10057;59.402;17.866;2023-12-14T00:58:35;101294.44;;;-4.86;81.98
19795;BME280;10057;59.402;17.866;2023-12-14T01:01:03;101296.13;;;-4.88;82.18
19795;BME280;10057;59.402;17.866;2023-12-14T01:03:30;101293.56;;;-4.86;81.56
19795;BME280;10057;59.402;17.866;2023-12-14T01:05:56;101308.28;;;-4.85;81.71
19795;BME280;10057;59.402;17.866;2023-12-14T01:08:23;101296.13;;;-4.88;81.56
19795;BME280;10057;59.402;17.866;2023-12-14T01:10:50;101304.75;;;-4.87;81.61
19795;BME280;10057;59.402;17.866;2023-12-14T01:13:17;101298.75;;;-4.86;82.17
19795;BME280;10057;59.402;17.866;2023-12-14T01:15:43;101302.22;;;-4.86;81.62
19795;BME280;10057;59.402;17.866;2023-12-14T01:18:11;101310.03;;;-4.84;81.99
19795;BME280;10057;59.402;17.866;2023-12-14T01:20:38;101317.94;;;-4.81;82.29
19795;BME280;10057;59.402;17.866;2023-12-14T01:23:05;101310.09;;;-4.83;81.73
19795;BME280;10057;59.402;17.866;2023-12-14T01:25:32;101310.91;;;-4.84;81.69
19795;BME280;10057;59.402;17.866;2023-12-14T01:27:59;101310.91;;;-4.84;82.00
19795;BME280;10057;59.402;17.866;2023-12-14T01:30:26;101304.00;;;-4.85;82.02
19795;BME280;10057;59.402;17.866;2023-12-14T01:32:53;101309.16;;;-4.85;81.45
19795;BME280;10057;59.402;17.866;2023-12-14T01:35:20;101313.47;;;-4.85;82.11
19795;BME280;10057;59.402;17.866;2023-12-14T01:37:46;101306.50;;;-4.86;81.85
19795;BME280;10057;59.402;17.866;2023-12-14T01:40:13;101303.00;;;-4.88;81.86
19795;BME280;10057;59.402;17.866;2023-12-14T01:42:40;101308.13;;;-4.90;81.63
19795;BME280;10057;59.402;17.866;2023-12-14T01:45:07;101302.06;;;-4.90;81.96
19795;BME280;10057;59.402;17.866;2023-12-14T01:47:34;101305.53;;;-4.90;81.58
19795;BME280;10057;59.402;17.866;2023-12-14T01:50:00;101308.94;;;-4.91;81.76
19795;BME280;10057;59.402;17.866;2023-12-14T01:52:27;101304.63;;;-4.92;81.75
19795;BME280;10057;59.402;17.866;2023-12-14T01:54:54;101302.94;;;-4.90;81.91
19795;BME280;10057;59.402;17.866;2023-12-14T01:57:22;101298.72;;;-4.88;81.85
19795;BME280;10057;59.402;17.866;2023-12-14T01:59:48;101297.88;;;-4.87;81.90
19795;BME280;10057;59.402;17.866;2023-12-14T02:02:15;101301.34;;;-4.86;81.65
19795;BME280;10057;59.402;17.866;2023-12-14T02:04:42;101297.88;;;-4.87;81.56
19795;BME280;10057;59.402;17.866;2023-12-14T02:07:08;101303.03;;;-4.87;82.25
19795;BME280;10057;59.402;17.866;2023-12-14T02:09:35;101300.53;;;-4.85;82.09
19795;BME280;10057;59.402;17.866;2023-12-14T02:12:01;101305.75;;;-4.84;82.15
19795;BME280;10057;59.402;17.866;2023-12-14T02:14:28;101298.81;;;-4.85;81.82
19795;BME280;10057;59.402;17.866;2023-12-14T02:16:55;101292.81;;;-4.84;81.63
19795;BME280;10057;59.402;17.866;2023-12-14T02:19:22;101298.00;;;-4.82;82.10
19795;BME280;10057;59.402;17.866;2023-12-14T02:21:48;101296.41;;;-4.79;82.01
19795;BME280;10057;59.402;17.866;2023-12-14T02:24:15;101297.31;;;-4.78;81.79
19795;BME280;10057;59.402;17.866;2023-12-14T02:26:41;101292.06;;;-4.80;81.37
19795;BME280;10057;59.402;17.866;2023-12-14T02:29:27;101299.72;;;-4.83;82.08
19795;BME280;10057;59.402;17.866;2023-12-14T02:31:54;101291.84;;;-4.86;82.15
19795;BME280;10057;59.402;17.866;2023-12-14T02:34:20;101290.22;;;-4.84;81.79
19795;BME280;10057;59.402;17.866;2023-12-14T02:36:47;101296.25;;;-4.83;82.17
19795;BME280;10057;59.402;17.866;2023-12-14T02:39:14;101292.84;;;-4.82;82.20
19795;BME280;10057;59.402;17.866;2023-12-14T02:41:40;101290.31;;;-4.81;82.19
19795;BME280;10057;59.402;17.866;2023-12-14T02:44:07;101283.38;;;-4.82;81.93
19795;BME280;10057;59.402;17.866;2023-12-14T02:46:34;101292.06;;;-4.80;82.00
19795;BME280;10057;59.402;17.866;2023-12-14T02:49:00;101286.06;;;-4.79;82.06
19795;BME280;10057;59.402;17.866;2023-12-14T02:51:27;101281.81;;;-4.77;82.07
19795;BME280;10057;59.402;17.866;2023-12-14T02:53:54;101289.66;;;-4.75;82.12
19795;BME280;10057;59.402;17.866;2023-12-14T02:56:23;101295.75;;;-4.73;81.84
19795;BME280;10057;59.402;17.866;2023-12-14T02:58:50;101290.53;;;-4.74;82.09
19795;BME280;10057;59.402;17.866;2023-12-14T03:01:20;101292.28;;;-4.73;81.91
19795;BME280;10057;59.402;17.866;2023-12-14T03:03:47;101294.88;;;-4.73;82.28
19795;BME280;10057;59.402;17.866;2023-12-14T03:06:14;101299.22;;;-4.72;81.92
19795;BME280;10057;59.402;17.866;2023-12-14T03:08:41;101294.91;;;-4.72;82.10
19795;BME280;10057;59.402;17.866;2023-12-14T03:11:08;101290.69;;;-4.70;82.05
19795;BME280;10057;59.402;17.866;2023-12-14T03:13:34;101290.69;;;-4.70;81.84
19795;BME280;10057;59.402;17.866;2023-12-14T03:16:01;101298.47;;;-4.68;82.33
19795;BME280;10057;59.402;17.866;2023-12-14T03:18:28;101301.06;;;-4.68;82.29
19795;BME280;10057;59.402;17.866;2023-12-14T03:20:54;101295.00;;;-4.69;81.95
19795;BME280;10057;59.402;17.866;2023-12-14T03:23:21;101303.63;;;-4.70;82.12
19795;BME280;10057;59.402;17.866;2023-12-14T03:25:48;101294.97;;;-4.70;82.28
19795;BME280;10057;59.402;17.866;2023-12-14T03:28:14;101300.09;;;-4.72;82.39
19795;BME280;10057;59.402;17.866;2023-12-14T03:30:41;101297.50;;;-4.72;82.40
19795;BME280;10057;59.402;17.866;2023-12-14T03:33:08;101293.28;;;-4.70;82.25
19795;BME280;10057;59.402;17.866;2023-12-14T03:35:34;101301.97;;;-4.68;82.00
19795;BME280;10057;59.402;17.866;2023-12-14T03:38:02;101302.84;;;-4.67;81.78
19795;BME280;10057;59.402;17.866;2023-12-14T03:40:29;101303.72;;;-4.67;82.32
19795;BME280;10057;59.402;17.866;2023-12-14T03:42:55;101308.06;;;-4.66;82.21
19795;BME280;10057;59.402;17.866;2023-12-14T03:45:22;101300.25;;;-4.67;82.11
19795;BME280;10057;59.402;17.866;2023-12-14T03:47:49;101301.06;;;-4.68;81.97
19795;BME280;10057;59.402;17.866;2023-12-14T03:50:15;101313.22;;;-4.67;82.06
19795;BME280;10057;59.402;17.866;2023-12-14T03:52:42;101302.78;;;-4.69;82.20
19795;BME280;10057;59.402;17.866;2023-12-14T03:55:09;101312.34;;;-4.68;81.98
19795;BME280;10057;59.402;17.866;2023-12-14T03:57:36;101303.72;;;-4.67;81.89
19795;BME280;10057;59.402;17.866;2023-12-14T04:00:03;101307.25;;;-4.65;81.78
19795;BME280;10057;59.402;17.866;2023-12-14T04:02:30;101306.44;;;-4.64;81.82
19795;BME280;10057;59.402;17.866;2023-12-14T04:04:56;101305.56;;;-4.64;82.50
19795;BME280;10057;59.402;17.866;2023-12-14T04:07:23;101308.94;;;-4.65;81.98
19795;BME280;10057;59.402;17.866;2023-12-14T04:09:50;101312.44;;;-4.65;81.82
19795;BME280;10057;59.402;17.866;2023-12-14T04:12:16;101314.13;;;-4.65;81.97
19795;BME280;10057;59.402;17.866;2023-12-14T04:14:43;101315.91;;;-4.64;81.88
19795;BME280;10057;59.402;17.866;2023-12-14T04:17:11;101311.53;;;-4.65;82.00
19795;BME280;10057;59.402;17.866;2023-12-14T04:19:39;101322.84;;;-4.63;81.94
19795;BME280;10057;59.402;17.866;2023-12-14T04:22:06;101308.06;;;-4.66;82.13
19795;BME280;10057;59.402;17.866;2023-12-14T04:24:33;101310.72;;;-4.64;82.03
19795;BME280;10057;59.402;17.866;2023-12-14T04:27:00;101306.47;;;-4.62;82.29
19795;BME280;10057;59.402;17.866;2023-12-14T04:29:27;101308.25;;;-4.61;81.95
19795;BME280;10057;59.402;17.866;2023-12-14T04:31:53;101314.41;;;-4.58;82.47
19795;BME280;10057;59.402;17.866;2023-12-14T04:34:21;101315.63;;;-4.46;81.75
19795;BME280;10057;59.402;17.866;2023-12-14T04:36:48;101315.78;;;-4.42;82.22
19795;BME280;10057;59.402;17.866;2023-12-14T04:39:14;101313.97;;;-4.44;82.03
19795;BME280;10057;59.402;17.866;2023-12-14T04:41:43;101308.72;;;-4.46;82.26
19795;BME280;10057;59.402;17.866;2023-12-14T04:44:09;101316.50;;;-4.46;81.94
19795;BME280;10057;59.402;17.866;2023-12-14T04:46:37;101313.91;;;-4.46;81.96
19795;BME280;10057;59.402;17.866;2023-12-14T04:49:03;101324.28;;;-4.46;82.05
19795;BME280;10057;59.402;17.866;2023-12-14T04:51:30;101306.13;;;-4.47;82.33
19795;BME280;10057;59.402;17.866;2023-12-14T04:53:58;101306.91;;;-4.48;82.30
19795;BME280;10057;59.402;17.866;2023-12-14T04:56:25;101304.31;;;-4.48;82.22
19795;BME280;10057;59.402;17.866;2023-12-14T04:58:51;101302.56;;;-4.49;81.91
19795;BME280;10057;59.402;17.866;2023-12-14T05:01:18;101306.88;;;-4.50;82.04
19795;BME280;10057;59.402;17.866;2023-12-14T05:03:45;101313.78;;;-4.50;81.86
19795;BME280;10057;59.402;17.866;2023-12-14T05:06:11;101311.22;;;-4.49;82.41
19795;BME280;10057;59.402;17.866;2023-12-14T05:08:38;101313.81;;;-4.49;82.04
19795;BME280;10057;59.402;17.866;2023-12-14T05:11:05;101323.34;;;-4.48;82.16
19795;BME280;10057;59.402;17.866;2023-12-14T05:13:32;101308.63;;;-4.49;82.18
19795;BME280;10057;59.402;17.866;2023-12-14T05:15:58;101318.22;;;-4.46;82.29
19795;BME280;10057;59.402;17.866;2023-12-14T05:18:25;101317.28;;;-4.48;82.51
19795;BME280;10057;59.402;17.866;2023-12-14T05:20:52;101317.34;;;-4.47;82.08
19795;BME280;10057;59.402;17.866;2023-12-14T05:23:19;101323.50;;;-4.43;82.12
19795;BME280;10057;59.402;17.866;2023-12-14T05:25:46;101322.66;;;-4.42;82.41
19795;BME280;10057;59.402;17.866;2023-12-14T05:28:14;101330.50;;;-4.41;82.39
19795;BME280;10057;59.402;17.866;2023-12-14T05:30:40;101328.72;;;-4.42;82.25
19795;BME280;10057;59.402;17.866;2023-12-14T05:33:08;101325.22;;;-4.44;82.10
19795;BME280;10057;59.402;17.866;2023-12-14T05:35:38;101327.72;;;-4.47;82.24
19795;BME280;10057;59.402;17.866;2023-12-14T05:38:05;101336.38;;;-4.45;82.38
19795;BME280;10057;59.402;17.866;2023-12-14T05:40:32;101332.81;;;-4.48;82.01
19795;BME280;10057;59.402;17.866;2023-12-14T05:42:58;101336.25;;;-4.49;81.95
19795;BME280;10057;59.402;17.866;2023-12-14T05:45:25;101333.63;;;-4.51;82.11
19795;BME280;10057;59.402;17.866;2023-12-14T05:47:52;101338.72;;;-4.53;82.22
19795;BME280;10057;59.402;17.866;2023-12-14T05:50:18;101337.84;;;-4.53;82.17
19795;BME280;10057;59.402;17.866;2023-12-14T05:52:45;101342.09;;;-4.55;81.91
19795;BME280;10057;59.402;17.866;2023-12-14T05:55:12;101339.50;;;-4.55;82.20
19795;BME280;10057;59.402;17.866;2023-12-14T05:57:39;101345.53;;;-4.56;81.82
19795;BME280;10057;59.402;17.866;2023-12-14T06:00:06;101349.75;;;-4.58;82.09
19795;BME280;10057;59.402;17.866;2023-12-14T06:02:34;101353.19;;;-4.59;82.19
19795;BME280;10057;59.402;17.866;2023-12-14T06:05:03;101360.03;;;-4.61;81.91
19795;BME280;10057;59.402;17.866;2023-12-14T06:07:30;101355.56;;;-4.65;82.20
19795;BME280;10057;59.402;17.866;2023-12-14T06:09:57;101352.84;;;-4.68;81.73
19795;BME280;10057;59.402;17.866;2023-12-14T06:12:24;101354.63;;;-4.67;82.18
19795;BME280;10057;59.402;17.866;2023-12-14T06:14:50;101352.06;;;-4.67;82.14
19795;BME280;10057;59.402;17.866;2023-12-14T06:17:17;101345.09;;;-4.68;81.95
19795;BME280;10057;59.402;17.866;2023-12-14T06:19:44;101358.09;;;-4.67;82.05
19795;BME280;10057;59.402;17.866;2023-12-14T06:22:11;101359.94;;;-4.64;81.94
19795;BME280;10057;59.402;17.866;2023-12-14T06:24:37;101363.44;;;-4.62;82.13
19795;BME280;10057;59.402;17.866;2023-12-14T06:27:04;101360.06;;;-4.60;82.52
19795;BME280;10057;59.402;17.866;2023-12-14T06:29:31;101371.28;;;-4.61;82.27
19795;BME280;10057;59.402;17.866;2023-12-14T06:31:57;101366.84;;;-4.63;81.70
19795;BME280;10057;59.402;17.866;2023-12-14T06:34:24;101364.22;;;-4.65;82.08
19795;BME280;10057;59.402;17.866;2023-12-14T06:36:51;101373.69;;;-4.65;81.87
19795;BME280;10057;59.402;17.866;2023-12-14T06:39:18;101377.09;;;-4.66;81.76
19795;BME280;10057;59.402;17.866;2023-12-14T06:41:46;101377.94;;;-4.67;81.90
19795;BME280;10057;59.402;17.866;2023-12-14T06:44:13;101383.13;;;-4.67;82.46
19795;BME280;10057;59.402;17.866;2023-12-14T06:46:39;101373.53;;;-4.70;82.06
19795;BME280;10057;59.402;17.866;2023-12-14T06:49:06;101375.25;;;-4.70;82.28
19795;BME280;10057;59.402;17.866;2023-12-14T06:51:34;101380.31;;;-4.73;82.10
19795;BME280;10057;59.402;17.866;2023-12-14T06:54:00;101382.03;;;-4.74;82.11
19795;BME280;10057;59.402;17.866;2023-12-14T06:56:27;101378.56;;;-4.74;82.38
19795;BME280;10057;59.402;17.866;2023-12-14T06:58:54;101394.03;;;-4.76;82.20
19795;BME280;10057;59.402;17.866;2023-12-14T07:01:21;101395.75;;;-4.77;82.06
19795;BME280;10057;59.402;17.866;2023-12-14T07:03:47;101390.56;;;-4.77;81.81
19795;BME280;10057;59.402;17.866;2023-12-14T07:06:15;101380.97;;;-4.79;82.28
19795;BME280;10057;59.402;17.866;2023-12-14T07:08:43;101382.75;;;-4.78;82.43
19795;BME280;10057;59.402;17.866;2023-12-14T07:11:11;101396.56;;;-4.78;81.89
19795;BME280;10057;59.402;17.866;2023-12-14T07:13:38;101403.41;;;-4.80;81.84
19795;BME280;10057;59.402;17.866;2023-12-14T07:16:09;101402.47;;;-4.82;82.58
19795;BME280;10057;59.402;17.866;2023-12-14T07:18:37;101400.75;;;-4.81;82.06
19795;BME280;10057;59.402;17.866;2023-12-14T07:21:05;101399.81;;;-4.83;81.97
19795;BME280;10057;59.402;17.866;2023-12-14T07:23:33;101406.72;;;-4.84;81.84
19795;BME280;10057;59.402;17.866;2023-12-14T07:26:01;101415.34;;;-4.83;82.18
19795;BME280;10057;59.402;17.866;2023-12-14T07:28:31;101408.47;;;-4.83;82.48
19795;BME280;10057;59.402;17.866;2023-12-14T07:30:58;101417.06;;;-4.84;82.11
19795;BME280;10057;59.402;17.866;2023-12-14T07:33:25;101415.34;;;-4.83;82.72
19795;BME280;10057;59.402;17.866;2023-12-14T07:35:52;101423.19;;;-4.82;82.00
19795;BME280;10057;59.402;17.866;2023-12-14T07:38:18;101413.75;;;-4.80;82.50
19795;BME280;10057;59.402;17.866;2023-12-14T07:40:45;101428.41;;;-4.80;82.04
19795;BME280;10057;59.402;17.866;2023-12-14T07:43:13;101421.53;;;-4.80;82.50
19795;BME280;10057;59.402;17.866;2023-12-14T07:45:40;101425.81;;;-4.80;82.05
19795;BME280;10057;59.402;17.866;2023-12-14T07:48:06;101423.22;;;-4.80;82.47
19795;BME280;10057;59.402;17.866;2023-12-14T07:50:33;101434.91;;;-4.67;82.75
19795;BME280;10057;59.402;17.866;2023-12-14T07:53:00;101433.69;;;-4.53;82.60
19795;BME280;10057;59.402;17.866;2023-12-14T07:55:27;101432.13;;;-4.48;81.83
19795;BME280;10057;59.402;17.866;2023-12-14T07:57:54;101432.03;;;-4.51;81.47
19795;BME280;10057;59.402;17.866;2023-12-14T08:00:21;101438.00;;;-4.54;81.81
19795;BME280;10057;59.402;17.866;2023-12-14T08:02:47;101444.78;;;-4.57;81.97
19795;BME280;10057;59.402;17.866;2023-12-14T08:05:14;101440.31;;;-4.61;81.60
19795;BME280;10057;59.402;17.866;2023-12-14T08:07:41;101441.84;;;-4.66;82.18
19795;BME280;10057;59.402;17.866;2023-12-14T08:10:08;101443.50;;;-4.68;82.42
19795;BME280;10057;59.402;17.866;2023-12-14T08:12:35;101450.34;;;-4.70;82.32
19795;BME280;10057;59.402;17.866;2023-12-14T08:15:02;101445.09;;;-4.72;82.03
19795;BME280;10057;59.402;17.866;2023-12-14T08:17:29;101448.50;;;-4.73;82.39
19795;BME280;10057;59.402;17.866;2023-12-14T08:19:56;101450.19;;;-4.75;82.43
19795;BME280;10057;59.402;17.866;2023-12-14T08:22:22;101449.28;;;-4.76;81.91
19795;BME280;10057;59.402;17.866;2023-12-14T08:24:49;101447.53;;;-4.77;82.06
19795;BME280;10057;59.402;17.866;2023-12-14T08:27:16;101445.78;;;-4.78;81.85
19795;BME280;10057;59.402;17.866;2023-12-14T08:29:43;101450.06;;;-4.78;82.25
19795;BME280;10057;59.402;17.866;2023-12-14T08:32:11;101452.59;;;-4.80;81.83
19795;BME280;10057;59.402;17.866;2023-12-14T08:34:40;101452.53;;;-4.81;82.12
19795;BME280;10057;59.402;17.866;2023-12-14T08:37:07;101463.78;;;-4.81;82.16
19795;BME280;10057;59.402;17.866;2023-12-14T08:39:34;101461.13;;;-4.82;82.29
19795;BME280;10057;59.402;17.866;2023-12-14T08:42:01;101462.03;;;-4.82;82.41
19795;BME280;10057;59.402;17.866;2023-12-14T08:44:29;101471.47;;;-4.82;82.32
19795;BME280;10057;59.402;17.866;2023-12-14T08:46:55;101474.97;;;-4.82;81.71
19795;BME280;10057;59.402;17.866;2023-12-14T08:49:22;101467.13;;;-4.83;81.87
19795;BME280;10057;59.402;17.866;2023-12-14T08:51:50;101473.13;;;-4.84;82.25
19795;BME280;10057;59.402;17.866;2023-12-14T08:54:18;101467.88;;;-4.86;82.35
19795;BME280;10057;59.402;17.866;2023-12-14T08:56:45;101480.06;;;-4.83;81.96
19795;BME280;10057;59.402;17.866;2023-12-14T08:59:11;101475.78;;;-4.83;82.33
19795;BME280;10057;59.402;17.866;2023-12-14T09:01:39;101480.94;;;-4.83;81.90
19795;BME280;10057;59.402;17.866;2023-12-14T09:04:06;101480.03;;;-4.85;82.33
19795;BME280;10057;59.402;17.866;2023-12-14T09:06:33;101478.31;;;-4.84;81.81
19795;BME280;10057;59.402;17.866;2023-12-14T09:09:00;101483.50;;;-4.84;82.36
19795;BME280;10057;59.402;17.866;2023-12-14T09:11:26;101492.13;;;-4.84;82.24
19795;BME280;10057;59.402;17.866;2023-12-14T09:13:53;101487.78;;;-4.85;82.38
19795;BME280;10057;59.402;17.866;2023-12-14T09:16:20;101493.78;;;-4.86;81.82
19795;BME280;10057;59.402;17.866;2023-12-14T09:18:46;101497.28;;;-4.85;81.83
19795;BME280;10057;59.402;17.866;2023-12-14T09:21:13;101501.53;;;-4.86;82.34
19795;BME280;10057;59.402;17.866;2023-12-14T09:23:41;101498.16;;;-4.85;82.42
19795;BME280;10057;59.402;17.866;2023-12-14T09:26:09;101492.09;;;-4.85;82.44
19795;BME280;10057;59.402;17.866;2023-12-14T09:28:37;101491.19;;;-4.86;82.18
19795;BME280;10057;59.402;17.866;2023-12-14T09:31:06;101493.78;;;-4.86;81.92
19795;BME280;10057;59.402;17.866;2023-12-14T09:33:34;101492.97;;;-4.85;82.34
19795;BME280;10057;59.402;17.866;2023-12-14T09:36:02;101491.19;;;-4.86;82.08
19795;BME280;10057;59.402;17.866;2023-12-14T09:38:28;101497.28;;;-4.85;81.88
19795;BME280;10057;59.402;17.866;2023-12-14T09:40:55;101498.03;;;-4.88;81.91
19795;BME280;10057;59.402;17.866;2023-12-14T09:43:23;101495.38;;;-4.89;82.52
19795;BME280;10057;59.402;17.866;2023-12-14T09:45:50;101492.78;;;-4.89;81.93
19795;BME280;10057;59.402;17.866;2023-12-14T09:48:17;101496.19;;;-4.90;81.79
19795;BME280;10057;59.402;17.866;2023-12-14T09:50:45;101493.56;;;-4.92;82.22
19795;BME280;10057;59.402;17.866;2023-12-14T09:53:13;101496.97;;;-4.93;82.05
19795;BME280;10057;59.402;17.866;2023-12-14T09:55:39;101490.97;;;-4.92;82.09
19795;BME280;10057;59.402;17.866;2023-12-14T09:58:06;101493.56;;;-4.92;82.36
19795;BME280;10057;59.402;17.866;2023-12-14T10:00:37;101490.06;;;-4.92;82.25
19795;BME280;10057;59.402;17.866;2023-12-14T10:05:45;101496.19;;;-4.90;82.42
19795;BME280;10057;59.402;17.866;2023-12-14T10:08:12;101491.88;;;-4.91;82.15
19795;BME280;10057;59.402;17.866;2023-12-14T10:10:38;101491.91;;;-4.90;82.35
19795;BME280;10057;59.402;17.866;2023-12-14T10:13:05;101488.50;;;-4.89;82.41
19795;BME280;10057;59.402;17.866;2023-12-14T10:15:44;101491.16;;;-4.87;82.07
19795;BME280;10057;59.402;17.866;2023-12-14T10:18:11;101484.13;;;-4.90;81.83
19795;BME280;10057;59.402;17.866;2023-12-14T10:20:38;101499.75;;;-4.88;82.54
19795;BME280;10057;59.402;17.866;2023-12-14T10:23:06;101503.22;;;-4.88;82.09
19795;BME280;10057;59.402;17.866;2023-12-14T10:25:35;101498.03;;;-4.88;82.15
19795;BME280;10057;59.402;17.866;2023-12-14T10:28:02;101492.84;;;-4.88;81.85
19795;BME280;10057;59.402;17.866;2023-12-14T10:30:29;101498.88;;;-4.89;82.21
19795;BME280;10057;59.402;17.866;2023-12-14T10:33:00;101499.63;;;-4.91;82.24
19795;BME280;10057;59.402;17.866;2023-12-14T10:35:27;101496.09;;;-4.93;82.23
19795;BME280;10057;59.402;17.866;2023-12-14T10:37:55;101499.56;;;-4.93;82.39
19795;BME280;10057;59.402;17.866;2023-12-14T10:40:23;101511.63;;;-4.93;82.31
19795;BME280;10057;59.402;17.866;2023-12-14T10:42:49;101507.19;;;-4.96;81.78
19795;BME280;10057;59.402;17.866;2023-12-14T10:45:17;101499.38;;;-4.97;81.83
19795;BME280;10057;59.402;17.866;2023-12-14T10:47:50;101505.31;;;-5.00;81.95
19795;BME280;10057;59.402;17.866;2023-12-14T10:50:18;101508.78;;;-5.00;81.80
19795;BME280;10057;59.402;17.866;2023-12-14T10:52:46;101502.72;;;-5.00;82.24
19795;BME280;10057;59.402;17.866;2023-12-14T10:55:22;101498.44;;;-5.00;81.77
19795;BME280;10057;59.402;17.866;2023-12-14T10:57:52;101502.72;;;-5.00;81.90
19795;BME280;10057;59.402;17.866;2023-12-14T11:00:20;101502.72;;;-5.00;82.19
19795;BME280;10057;59.402;17.866;2023-12-14T11:02:47;101500.16;;;-5.00;82.51
19795;BME280;10057;59.402;17.866;2023-12-14T11:05:15;101488.91;;;-5.01;81.88
19795;BME280;10057;59.402;17.866;2023-12-14T11:07:49;101496.75;;;-4.99;82.25
19795;BME280;10057;59.402;17.866;2023-12-14T11:10:27;101496.75;;;-4.99;82.37
19795;BME280;10057;59.402;17.866;2023-12-14T11:12:55;101500.16;;;-5.00;82.01
19795;BME280;10057;59.402;17.866;2023-12-14T11:15:23;101501.97;;;-4.97;81.79
19795;BME280;10057;59.402;17.866;2023-12-14T11:23:15;101506.31;;;-4.96;81.78
19795;BME280;10057;59.402;17.866;2023-12-14T11:25:50;101514.03;;;-4.98;82.16
19795;BME280;10057;59.402;17.866;2023-12-14T11:28:24;101505.41;;;-4.98;82.03
19795;BME280;10057;59.402;17.866;2023-12-14T11:30:54;101508.91;;;-4.96;81.90
19795;BME280;10057;59.402;17.866;2023-12-14T11:33:22;101507.19;;;-4.96;82.35
19795;BME280;10057;59.402;17.866;2023-12-14T11:35:51;101518.53;;;-4.92;82.11
19795;BME280;10057;59.402;17.866;2023-12-14T11:38:19;101510.84;;;-4.91;82.80
19795;BME280;10057;59.402;17.866;2023-12-14T11:40:48;101510.03;;;-4.90;82.59
19795;BME280;10057;59.402;17.866;2023-12-14T11:43:16;101510.91;;;-4.89;82.64
19795;BME280;10057;59.402;17.866;2023-12-14T11:45:43;101510.97;;;-4.88;82.48
19795;BME280;10057;59.402;17.866;2023-12-14T11:48:11;101510.16;;;-4.87;82.24
19795;BME280;10057;59.402;17.866;2023-12-14T11:50:40;101513.69;;;-4.85;82.08
19795;BME280;10057;59.402;17.866;2023-12-14T11:53:07;101511.91;;;-4.86;82.30
19795;BME280;10057;59.402;17.866;2023-12-14T11:55:36;101514.44;;;-4.87;81.91
19795;BME280;10057;59.402;17.866;2023-12-14T11:58:04;101512.69;;;-4.88;82.22
19795;BME280;10057;59.402;17.866;2023-12-14T12:00:31;101508.28;;;-4.91;81.99
19795;BME280;10057;59.402;17.866;2023-12-14T12:03:18;101510.84;;;-4.91;82.43
19795;BME280;10057;59.402;17.866;2023-12-14T12:05:48;101507.44;;;-4.90;82.35
19795;BME280;10057;59.402;17.866;2023-12-14T12:08:19;101517.00;;;-4.89;81.97
19795;BME280;10057;59.402;17.866;2023-12-14T12:10:47;101514.41;;;-4.89;82.47
19795;BME280;10057;59.402;17.866;2023-12-14T12:13:18;101510.97;;;-4.88;81.93
19795;BME280;10057;59.402;17.866;2023-12-14T12:15:46;101513.59;;;-4.86;82.02
19795;BME280;10057;59.402;17.866;2023-12-14T12:18:15;101518.06;;;-4.82;82.60
19795;BME280;10057;59.402;17.866;2023-12-14T12:20:43;101519.03;;;-4.80;82.22
19795;BME280;10057;59.402;17.866;2023-12-14T12:23:10;101530.34;;;-4.78;82.67
19795;BME280;10057;59.402;17.866;2023-12-14T12:25:37;101532.13;;;-4.76;82.17
19795;BME280;10057;59.402;17.866;2023-12-14T12:28:04;101531.25;;;-4.76;82.56
19795;BME280;10057;59.402;17.866;2023-12-14T12:30:31;101534.72;;;-4.76;82.30
19795;BME280;10057;59.402;17.866;2023-12-14T12:32:58;101542.44;;;-4.77;82.27
19795;BME280;10057;59.402;17.866;2023-12-14T12:35:25;101534.56;;;-4.80;82.25
19795;BME280;10057;59.402;17.866;2023-12-14T12:37:52;101526.78;;;-4.80;82.12
19795;BME280;10057;59.402;17.866;2023-12-14T12:40:23;101531.13;;;-4.79;82.14
19795;BME280;10057;59.402;17.866;2023-12-14T12:42:52;101533.72;;;-4.79;82.55
19795;BME280;10057;59.402;17.866;2023-12-14T12:45:19;101542.38;;;-4.79;82.48
19795;BME280;10057;59.402;17.866;2023-12-14T12:47:49;101540.63;;;-4.80;81.89
19795;BME280;10057;59.402;17.866;2023-12-14T12:50:17;101547.53;;;-4.79;82.08